createdAt,value
2023-01-29T00:01:56.783Z,26.28
2023-01-29T00:04:23.956Z,26.22
2023-01-29T00:06:50.746Z,26.46
2023-01-29T00:09:17.897Z,27.09
2023-01-29T00:11:44.849Z,27.02
2023-01-29T00:14:11.462Z,27.17
2023-01-29T00:16:38.065Z,27.78
2023-01-29T00:19:04.768Z,27.42
2023-01-29T00:21:32.170Z,27.33
2023-01-29T00:24:00.035Z,26.69
2023-01-29T00:26:27.303Z,27.76
2023-01-29T00:28:54.649Z,26.46
2023-01-29T00:31:23.678Z,27.13
2023-01-29T00:33:51.813Z,28.25
2023-01-29T00:36:21.498Z,27.47
2023-01-29T00:38:54.610Z,27.49
2023-01-29T00:41:40.944Z,27.58
2023-01-29T00:44:26.315Z,28.10
2023-01-29T00:46:52.978Z,27.88
2023-01-29T00:49:19.593Z,28.55
2023-01-29T00:52:06.430Z,27.98
2023-01-29T00:54:33.292Z,27.92
2023-01-29T00:57:00.602Z,27.18
2023-01-29T00:59:27.096Z,26.82
2023-01-29T01:02:12.794Z,27.66
2023-01-29T01:04:39.296Z,27.14
2023-01-29T01:07:06.759Z,26.71
2023-01-29T01:09:54.713Z,26.65
2023-01-29T01:12:21.648Z,28.19
2023-01-29T01:14:48.876Z,26.44
2023-01-29T01:17:15.640Z,26.45
2023-01-29T01:19:42.479Z,26.10
2023-01-29T01:22:09.039Z,27.06
2023-01-29T01:24:36.063Z,26.76
2023-01-29T01:27:02.684Z,26.33
2023-01-29T01:29:29.319Z,25.67
2023-01-29T01:31:56.027Z,25.71
2023-01-29T01:34:22.633Z,25.94
2023-01-29T01:36:49.323Z,25.41
2023-01-29T01:39:15.920Z,24.94
2023-01-29T01:41:42.465Z,25.33
2023-01-29T01:44:47.341Z,24.81
2023-01-29T01:47:15.968Z,24.10
2023-01-29T01:49:44.305Z,24.27
2023-01-29T01:52:16.442Z,25.09
2023-01-29T01:54:44.521Z,24.64
2023-01-29T01:57:18.400Z,24.45
2023-01-29T01:59:56.458Z,24.06
2023-01-29T02:02:42.190Z,24.25
2023-01-29T02:05:30.591Z,24.74
2023-01-29T02:08:18.325Z,23.97
2023-01-29T02:10:48.986Z,25.04
2023-01-29T02:13:18.546Z,25.78
2023-01-29T02:15:48.750Z,24.60
2023-01-29T02:18:21.595Z,24.37
2023-01-29T02:21:38.448Z,24.54
2023-01-29T02:24:25.993Z,24.38
2023-01-29T02:26:55.282Z,24.61
2023-01-29T02:29:49.691Z,23.92
2023-01-29T02:32:36.787Z,25.34
2023-01-29T02:35:29.977Z,23.96
2023-01-29T02:38:19.580Z,23.30
2023-01-29T02:41:04.158Z,25.02
2023-01-29T02:43:48.771Z,24.94
2023-01-29T02:46:35.463Z,25.39
2023-01-29T02:49:09.158Z,26.26
2023-01-29T02:51:49.679Z,25.96
2023-01-29T02:54:32.560Z,26.17
2023-01-29T02:57:04.915Z,25.62
2023-01-29T02:59:46.156Z,26.34
2023-01-29T03:02:20.918Z,26.76
2023-01-29T03:04:58.356Z,26.12
2023-01-29T03:07:44.544Z,25.75
2023-01-29T03:10:39.356Z,27.24
2023-01-29T03:13:17.715Z,28.03
2023-01-29T03:15:54.825Z,27.05
2023-01-29T03:18:27.738Z,27.76
2023-01-29T03:21:04.041Z,28.15
2023-01-29T03:23:54.824Z,27.21
2023-01-29T03:26:41.624Z,27.54
2023-01-29T03:29:30.490Z,28.46
2023-01-29T03:32:07.863Z,28.19
2023-01-29T03:34:46.751Z,28.36
2023-01-29T03:37:20.345Z,28.12
2023-01-29T03:39:47.545Z,28.75
2023-01-29T03:42:35.344Z,29.97
2023-01-29T03:45:36.035Z,29.63
2023-01-29T03:48:37.370Z,28.99
2023-01-29T03:51:33.327Z,30.17
2023-01-29T03:53:59.828Z,31.03
2023-01-29T03:56:43.647Z,30.94
2023-01-29T03:59:22.256Z,30.54
2023-01-29T04:01:57.647Z,30.02
2023-01-29T04:04:32.656Z,29.57
2023-01-29T04:07:11.779Z,30.21
2023-01-29T04:09:51.961Z,30.96
2023-01-29T04:12:31.999Z,31.49
2023-01-29T04:15:01.907Z,30.18
2023-01-29T04:17:37.083Z,32.10
2023-01-29T04:20:04.300Z,30.79
2023-01-29T04:22:36.625Z,30.25
2023-01-29T04:25:15.929Z,31.34
2023-01-29T04:28:20.769Z,30.43
2023-01-29T04:30:58.451Z,31.63
2023-01-29T04:33:52.981Z,30.89
2023-01-29T04:36:37.006Z,31.55
2023-01-29T04:39:11.103Z,31.50
2023-01-29T04:42:01.339Z,32.36
2023-01-29T04:44:38.917Z,31.66
2023-01-29T04:47:23.368Z,32.24
2023-01-29T04:50:18.726Z,31.67
2023-01-29T04:53:12.973Z,31.13
2023-01-29T04:55:54.659Z,31.39
2023-01-29T04:59:03.040Z,30.95
2023-01-29T05:01:33.317Z,31.77
2023-01-29T05:04:06.571Z,31.37
2023-01-29T05:06:33.498Z,31.65
2023-01-29T05:09:02.546Z,32.60
2023-01-29T05:11:33.089Z,32.51
2023-01-29T05:14:06.506Z,32.32
2023-01-29T05:16:44.586Z,32.52
2023-01-29T05:19:14.869Z,32.86
2023-01-29T05:21:45.852Z,32.55
2023-01-29T05:24:22.095Z,32.90
2023-01-29T05:27:11.325Z,32.81
2023-01-29T05:29:42.935Z,32.45
2023-01-29T05:32:09.538Z,33.47
2023-01-29T05:34:36.099Z,32.76
2023-01-29T05:37:02.783Z,33.72
2023-01-29T05:39:29.378Z,34.03
2023-01-29T05:41:55.891Z,33.90
2023-01-29T05:44:22.466Z,33.05
2023-01-29T05:46:50.351Z,34.11
2023-01-29T05:49:18.368Z,34.82
2023-01-29T05:51:44.926Z,34.07
2023-01-29T05:54:12.636Z,33.59
2023-01-29T05:56:39.955Z,34.72
2023-01-29T05:59:07.344Z,34.00
2023-01-29T06:01:33.979Z,33.63
2023-01-29T06:04:00.564Z,34.06
2023-01-29T06:06:27.059Z,34.24
2023-01-29T06:08:53.613Z,34.52
2023-01-29T06:11:20.583Z,32.90
2023-01-29T06:13:47.889Z,33.60
2023-01-29T06:16:16.529Z,33.91
2023-01-29T06:18:43.308Z,34.42
2023-01-29T06:21:12.829Z,33.95
2023-01-29T06:23:39.713Z,33.85
2023-01-29T06:26:12.990Z,33.29
2023-01-29T06:28:39.936Z,33.40
2023-01-29T06:31:26.536Z,33.16
2023-01-29T06:33:55.034Z,34.00
2023-01-29T06:36:21.570Z,33.46
2023-01-29T06:38:48.233Z,32.68
2023-01-29T06:41:18.816Z,32.34
2023-01-29T06:43:46.302Z,32.06
2023-01-29T06:46:13.345Z,32.74
2023-01-29T06:48:40.039Z,32.05
2023-01-29T06:51:09.296Z,32.78
2023-01-29T06:53:37.787Z,32.70
2023-01-29T06:56:05.778Z,33.10
2023-01-29T06:58:32.439Z,33.17
2023-01-29T07:01:07.065Z,32.58
2023-01-29T07:03:33.766Z,32.56
2023-01-29T07:06:00.716Z,32.80
2023-01-29T07:08:28.176Z,32.83
2023-01-29T07:11:00.069Z,32.47
2023-01-29T07:13:26.983Z,33.50
2023-01-29T07:15:53.616Z,33.32
2023-01-29T07:18:20.174Z,33.47
2023-01-29T07:20:46.702Z,35.02
2023-01-29T07:23:14.206Z,33.96
2023-01-29T07:25:41.636Z,34.24
2023-01-29T07:28:08.428Z,33.86
2023-01-29T07:30:35.600Z,35.09
2023-01-29T07:33:07.999Z,35.15
2023-01-29T07:35:40.139Z,33.95
2023-01-29T07:38:07.839Z,33.16
2023-01-29T07:40:34.363Z,34.21
2023-01-29T07:43:03.271Z,33.67
2023-01-29T07:45:31.249Z,33.55
2023-01-29T07:47:57.869Z,32.42
2023-01-29T07:50:25.874Z,32.68
2023-01-29T07:52:54.160Z,32.78
2023-01-29T07:55:20.839Z,32.59
2023-01-29T07:57:48.004Z,32.44
2023-01-29T08:00:15.842Z,32.17
2023-01-29T08:02:42.741Z,32.73
2023-01-29T08:05:09.418Z,32.56
2023-01-29T08:07:35.935Z,32.36
2023-01-29T08:10:02.465Z,32.11
2023-01-29T08:12:29.150Z,31.71
2023-01-29T08:14:55.738Z,31.57
2023-01-29T08:17:22.357Z,31.57
2023-01-29T08:19:48.868Z,31.74
2023-01-29T08:22:16.487Z,31.26
2023-01-29T08:24:53.753Z,30.22
2023-01-29T08:27:26.765Z,30.61
2023-01-29T08:29:53.347Z,30.29
2023-01-29T08:32:19.911Z,30.87
2023-01-29T08:34:46.465Z,30.85
2023-01-29T08:37:13.031Z,31.00
2023-01-29T08:39:39.593Z,30.61
2023-01-29T08:42:06.093Z,30.60
2023-01-29T08:44:32.824Z,30.59
2023-01-29T08:46:59.463Z,31.69
2023-01-29T08:49:26.011Z,30.91
2023-01-29T08:51:53.841Z,30.34
2023-01-29T08:54:20.400Z,31.44
2023-01-29T08:56:46.917Z,31.02
2023-01-29T08:59:13.523Z,31.75
2023-01-29T09:01:40.136Z,31.88
2023-01-29T09:04:07.141Z,31.19
2023-01-29T09:06:34.664Z,30.76
2023-01-29T09:09:01.273Z,30.02
2023-01-29T09:11:27.883Z,30.07
2023-01-29T09:13:54.462Z,30.35
2023-01-29T09:16:21.096Z,29.91
2023-01-29T09:18:47.721Z,30.92
2023-01-29T09:21:14.299Z,31.07
2023-01-29T09:23:40.877Z,31.67
2023-01-29T09:26:08.576Z,31.03
2023-01-29T09:28:35.088Z,31.47
2023-01-29T09:31:03.133Z,31.24
2023-01-29T09:33:30.998Z,30.42
2023-01-29T09:35:57.649Z,30.89
2023-01-29T09:38:24.230Z,30.63
2023-01-29T09:41:43.809Z,31.36
2023-01-29T09:44:36.604Z,30.43
2023-01-29T09:47:11.057Z,30.79
2023-01-29T09:49:45.986Z,30.94
2023-01-29T09:52:22.594Z,31.03
2023-01-29T09:55:15.846Z,30.37
2023-01-29T09:57:53.311Z,30.92
2023-01-29T10:00:37.064Z,30.06
2023-01-29T10:03:40.925Z,31.25
2023-01-29T10:06:19.180Z,31.67
2023-01-29T10:09:19.907Z,31.19
2023-01-29T10:11:52.390Z,31.27
2023-01-29T10:14:31.305Z,30.52
2023-01-29T10:17:19.088Z,31.34
2023-01-29T10:20:00.603Z,31.34
2023-01-29T10:22:45.925Z,31.39
2023-01-29T10:25:22.547Z,31.95
2023-01-29T10:27:56.975Z,30.99
2023-01-29T10:30:37.579Z,31.01
2023-01-29T10:33:07.049Z,31.17
2023-01-29T10:35:43.709Z,31.86
2023-01-29T10:38:20.822Z,30.89
2023-01-29T10:41:00.029Z,31.53
2023-01-29T10:43:52.598Z,31.99
2023-01-29T10:46:40.296Z,31.95
2023-01-29T10:49:46.153Z,31.90
2023-01-29T10:52:46.367Z,31.94
2023-01-29T10:55:30.044Z,32.97
2023-01-29T10:58:18.537Z,31.85
2023-01-29T11:00:45.687Z,32.82
2023-01-29T11:03:29.519Z,32.22
2023-01-29T11:06:01.739Z,32.90
2023-01-29T11:08:43.003Z,33.25
2023-01-29T11:11:15.506Z,33.54
2023-01-29T11:14:00.468Z,32.84
2023-01-29T11:16:30.424Z,33.32
2023-01-29T11:18:59.883Z,33.57
2023-01-29T11:21:28.625Z,33.33
2023-01-29T11:24:16.706Z,34.51
2023-01-29T11:26:46.794Z,34.98
2023-01-29T11:29:34.983Z,35.17
2023-01-29T11:32:23.702Z,35.15
2023-01-29T11:35:24.010Z,35.24
2023-01-29T11:37:50.595Z,35.47
2023-01-29T11:40:19.984Z,36.03
2023-01-29T11:42:47.948Z,35.59
2023-01-29T11:45:20.465Z,36.51
2023-01-29T11:47:55.845Z,36.34
2023-01-29T11:50:33.757Z,37.98
2023-01-29T11:53:01.654Z,36.60
2023-01-29T11:55:49.468Z,37.10
2023-01-29T11:58:26.156Z,36.91
2023-01-29T12:00:55.564Z,37.66
2023-01-29T12:03:41.159Z,37.11
2023-01-29T12:06:23.432Z,36.45
2023-01-29T12:09:00.021Z,37.34
2023-01-29T12:11:35.151Z,37.09
2023-01-29T12:14:34.153Z,37.33
2023-01-29T12:17:17.380Z,36.57
2023-01-29T12:19:53.236Z,37.79
2023-01-29T12:22:44.522Z,38.11
2023-01-29T12:25:31.583Z,38.45
2023-01-29T12:28:17.138Z,38.89
2023-01-29T12:31:08.538Z,37.30
2023-01-29T12:34:08.248Z,37.30
2023-01-29T12:36:55.063Z,38.52
2023-01-29T12:39:22.343Z,38.44
2023-01-29T12:41:52.355Z,37.31
2023-01-29T12:44:31.481Z,38.79
2023-01-29T12:47:03.120Z,39.07
2023-01-29T12:49:35.275Z,38.68
2023-01-29T12:52:14.814Z,38.42
2023-01-29T12:54:56.193Z,38.23
2023-01-29T12:57:41.511Z,39.64
2023-01-29T13:00:22.744Z,39.52
2023-01-29T13:03:10.732Z,39.04
2023-01-29T13:06:00.616Z,39.60
2023-01-29T13:08:40.703Z,38.91
2023-01-29T13:11:20.638Z,39.68
2023-01-29T13:14:14.435Z,38.75
2023-01-29T13:16:46.588Z,39.84
2023-01-29T13:19:19.147Z,40.31
2023-01-29T13:21:47.314Z,39.49
2023-01-29T13:24:23.098Z,40.02
2023-01-29T13:26:50.910Z,40.27
2023-01-29T13:29:29.702Z,40.02
2023-01-29T13:32:00.521Z,39.18
2023-01-29T13:34:31.773Z,40.40
2023-01-29T13:37:03.752Z,40.32
2023-01-29T13:39:34.410Z,39.70
2023-01-29T13:42:16.649Z,39.72
2023-01-29T13:44:49.675Z,39.92
2023-01-29T13:47:26.763Z,39.76
2023-01-29T13:50:01.939Z,39.86
2023-01-29T13:52:52.182Z,38.04
2023-01-29T13:55:19.118Z,38.55
2023-01-29T13:57:46.162Z,37.15
2023-01-29T14:00:21.848Z,37.60
2023-01-29T14:03:14.003Z,37.93
2023-01-29T14:05:41.926Z,38.11
2023-01-29T14:08:15.018Z,38.12
2023-01-29T14:10:43.620Z,37.75
2023-01-29T14:13:19.153Z,38.14
2023-01-29T14:16:05.600Z,37.60
2023-01-29T14:18:35.688Z,37.15
2023-01-29T14:21:14.472Z,37.17
2023-01-29T14:23:48.501Z,36.70
2023-01-29T14:26:23.508Z,36.46
2023-01-29T14:29:44.066Z,36.05
2023-01-29T14:32:19.219Z,35.71
2023-01-29T14:34:50.825Z,35.91
2023-01-29T14:37:18.767Z,36.04
2023-01-29T14:39:57.531Z,35.37
2023-01-29T14:42:35.436Z,35.88
2023-01-29T14:45:26.228Z,36.65
2023-01-29T14:47:55.735Z,35.63
2023-01-29T14:50:34.839Z,35.79
2023-01-29T14:53:04.995Z,35.23
2023-01-29T14:55:40.020Z,36.08
2023-01-29T14:58:12.955Z,35.62
2023-01-29T15:00:44.848Z,34.91
2023-01-29T15:03:28.139Z,35.33
2023-01-29T15:05:59.378Z,34.01
2023-01-29T15:08:40.713Z,34.55
2023-01-29T15:11:35.632Z,35.88
2023-01-29T15:14:24.077Z,34.81
2023-01-29T15:17:17.304Z,33.75
2023-01-29T15:19:49.085Z,33.91
2023-01-29T15:22:26.260Z,34.24
2023-01-29T15:25:19.185Z,33.59
2023-01-29T15:27:46.171Z,34.03
2023-01-29T15:30:19.454Z,33.97
2023-01-29T15:32:47.671Z,34.33
2023-01-29T15:35:36.026Z,35.00
2023-01-29T15:38:22.708Z,33.48
2023-01-29T15:40:57.605Z,34.75
2023-01-29T15:43:27.724Z,34.27
2023-01-29T15:46:25.687Z,33.90
2023-01-29T15:48:55.886Z,33.55
2023-01-29T15:51:25.571Z,34.25
2023-01-29T15:53:56.199Z,34.48
2023-01-29T15:56:30.816Z,33.60
2023-01-29T15:59:04.016Z,33.75
2023-01-29T16:01:32.120Z,32.56
2023-01-29T16:04:02.424Z,32.51
2023-01-29T16:06:36.732Z,32.80
2023-01-29T16:09:05.976Z,33.18
2023-01-29T16:11:35.243Z,33.29
2023-01-29T16:14:05.175Z,32.48
2023-01-29T16:16:31.986Z,32.30
2023-01-29T16:19:00.685Z,31.83
2023-01-29T16:21:38.095Z,31.04
2023-01-29T16:24:19.649Z,31.85
2023-01-29T16:26:49.976Z,31.45
2023-01-29T16:29:22.303Z,31.61
2023-01-29T16:31:54.601Z,31.14
2023-01-29T16:34:26.027Z,30.69
2023-01-29T16:36:54.781Z,30.67
2023-01-29T16:39:32.814Z,30.49
2023-01-29T16:42:20.259Z,30.22
2023-01-29T16:45:05.363Z,29.91
2023-01-29T16:47:34.147Z,30.83
2023-01-29T16:50:19.251Z,31.33
2023-01-29T16:53:11.077Z,31.94
2023-01-29T16:55:41.549Z,31.34
2023-01-29T16:58:21.254Z,32.36
2023-01-29T17:01:00.334Z,33.15
2023-01-29T17:03:30.434Z,32.19
2023-01-29T17:05:57.120Z,34.03
2023-01-29T17:08:36.510Z,33.09
2023-01-29T17:11:03.536Z,34.12
2023-01-29T17:13:42.613Z,33.80
2023-01-29T17:16:29.238Z,33.59
2023-01-29T17:18:56.339Z,33.28
2023-01-29T17:21:22.873Z,33.58
2023-01-29T17:23:49.570Z,33.75
2023-01-29T17:26:16.293Z,34.69
2023-01-29T17:28:43.908Z,34.49
2023-01-29T17:31:10.757Z,34.73
2023-01-29T17:33:41.900Z,35.26
2023-01-29T17:36:12.719Z,35.10
2023-01-29T17:38:40.288Z,34.42
2023-01-29T17:41:16.424Z,35.07
2023-01-29T17:43:44.162Z,34.75
2023-01-29T17:46:16.555Z,37.03
2023-01-29T17:48:44.155Z,36.56
2023-01-29T17:51:16.330Z,36.85
2023-01-29T17:53:46.183Z,35.51
2023-01-29T17:56:20.239Z,35.62
2023-01-29T17:58:46.756Z,36.17
2023-01-29T18:01:13.312Z,35.71
2023-01-29T18:03:39.890Z,36.29
2023-01-29T18:06:08.946Z,34.92
2023-01-29T18:08:38.603Z,34.86
2023-01-29T18:11:05.625Z,35.75
2023-01-29T18:13:32.149Z,36.47
2023-01-29T18:15:58.785Z,37.54
2023-01-29T18:18:25.401Z,37.04
2023-01-29T18:20:51.986Z,36.79
2023-01-29T18:23:18.621Z,36.84
2023-01-29T18:25:45.611Z,37.66
2023-01-29T18:28:16.347Z,37.21
2023-01-29T18:30:45.634Z,37.28
2023-01-29T18:33:12.459Z,36.66
2023-01-29T18:35:39.194Z,37.45
2023-01-29T18:38:05.751Z,36.39
2023-01-29T18:40:32.777Z,36.12
2023-01-29T18:43:00.863Z,36.71
2023-01-29T18:45:28.637Z,36.42
2023-01-29T18:47:55.792Z,36.53
2023-01-29T18:50:26.374Z,37.53
2023-01-29T18:52:54.157Z,36.99
2023-01-29T18:55:21.916Z,36.85
2023-01-29T18:58:26.938Z,36.18
2023-01-29T19:00:42.225Z,36.18
2023-01-29T19:03:10.001Z,35.72
2023-01-29T19:05:36.520Z,36.10
2023-01-29T19:08:05.166Z,35.92
2023-01-29T19:10:31.907Z,36.09
2023-01-29T19:12:58.503Z,36.03
2023-01-29T19:15:25.039Z,36.72
2023-01-29T19:17:51.589Z,35.45
2023-01-29T19:20:18.618Z,35.90
2023-01-29T19:22:45.234Z,35.19
2023-01-29T19:25:12.567Z,35.87
2023-01-29T19:27:39.156Z,35.01
2023-01-29T19:30:06.191Z,35.65
2023-01-29T19:32:33.155Z,36.04
2023-01-29T19:34:59.680Z,35.97
2023-01-29T19:37:26.261Z,34.53
2023-01-29T19:39:53.775Z,35.02
2023-01-29T19:42:21.136Z,34.52
2023-01-29T19:44:48.224Z,35.71
2023-01-29T19:47:14.917Z,34.98
2023-01-29T19:49:41.624Z,35.85
2023-01-29T19:52:33.509Z,35.94
2023-01-29T19:55:01.747Z,36.01
2023-01-29T19:57:29.291Z,35.49
2023-01-29T19:59:56.491Z,35.38
2023-01-29T20:02:24.844Z,35.77
2023-01-29T20:04:55.638Z,36.52
2023-01-29T20:07:22.772Z,35.72
2023-01-29T20:09:51.268Z,36.74
2023-01-29T20:12:18.756Z,36.35
2023-01-29T20:14:48.749Z,35.52
2023-01-29T20:17:16.867Z,36.14
2023-01-29T20:19:45.213Z,37.04
2023-01-29T20:22:12.967Z,37.85
2023-01-29T20:24:42.235Z,36.58
2023-01-29T20:27:10.581Z,35.81
2023-01-29T20:29:38.533Z,37.14
2023-01-29T20:32:08.001Z,36.97
2023-01-29T20:34:36.094Z,38.15
2023-01-29T20:37:03.120Z,37.46
2023-01-29T20:39:29.711Z,37.19
2023-01-29T20:41:57.238Z,37.25
2023-01-29T20:44:24.948Z,36.50
2023-01-29T20:46:51.612Z,36.05
2023-01-29T20:49:18.319Z,35.60
2023-01-29T20:51:45.675Z,36.06
2023-01-29T20:54:12.655Z,36.81
2023-01-29T20:56:45.111Z,36.55
2023-01-29T20:59:12.742Z,36.04
2023-01-29T21:01:39.330Z,35.98
2023-01-29T21:04:05.864Z,36.33
2023-01-29T21:06:32.953Z,37.10
2023-01-29T21:08:59.514Z,36.89
2023-01-29T21:11:26.123Z,36.06
2023-01-29T21:13:57.353Z,36.31
2023-01-29T21:16:26.092Z,36.63
2023-01-29T21:18:56.276Z,35.84
2023-01-29T21:21:22.908Z,35.56
2023-01-29T21:23:49.707Z,36.30
2023-01-29T21:26:16.240Z,36.20
2023-01-29T21:28:42.752Z,36.13
2023-01-29T21:31:12.487Z,36.32
2023-01-29T21:33:39.042Z,36.02
2023-01-29T21:36:06.801Z,35.65
2023-01-29T21:38:33.572Z,34.77
2023-01-29T21:41:06.463Z,36.00
2023-01-29T21:43:33.410Z,35.46
2023-01-29T21:46:04.840Z,36.43
2023-01-29T21:48:31.532Z,34.62
2023-01-29T21:50:58.045Z,35.48
2023-01-29T21:53:24.702Z,35.45
2023-01-29T21:55:51.765Z,34.85
2023-01-29T21:58:19.822Z,35.30
2023-01-29T22:00:48.654Z,35.14
2023-01-29T22:03:15.700Z,35.41
2023-01-29T22:05:42.405Z,34.65
2023-01-29T22:08:09.616Z,34.75
2023-01-29T22:10:36.589Z,34.94
2023-01-29T22:13:03.229Z,34.59
2023-01-29T22:15:29.737Z,35.15
2023-01-29T22:17:56.381Z,35.27
2023-01-29T22:20:29.923Z,34.45
2023-01-29T22:22:58.587Z,35.35
2023-01-29T22:25:25.159Z,35.71
2023-01-29T22:27:51.771Z,34.27
2023-01-29T22:30:18.940Z,35.55
2023-01-29T22:32:45.768Z,35.11
2023-01-29T22:35:12.327Z,34.19
2023-01-29T22:37:38.920Z,33.77
2023-01-29T22:40:06.259Z,33.76
2023-01-29T22:42:32.815Z,34.54
2023-01-29T22:44:59.342Z,34.26
2023-01-29T22:47:25.907Z,34.30
2023-01-29T22:49:52.547Z,35.39
2023-01-29T22:52:22.366Z,35.06
2023-01-29T22:54:48.946Z,34.06
2023-01-29T22:57:15.595Z,34.33
2023-01-29T22:59:42.126Z,34.17
2023-01-29T23:02:08.977Z,34.38
2023-01-29T23:04:35.556Z,33.50
2023-01-29T23:07:02.282Z,34.30
2023-01-29T23:09:28.846Z,34.16
2023-01-29T23:11:55.468Z,34.51
2023-01-29T23:14:22.056Z,33.07
2023-01-29T23:16:48.575Z,32.94
2023-01-29T23:19:15.170Z,33.18
2023-01-29T23:21:41.780Z,32.63
2023-01-29T23:24:09.068Z,32.01
2023-01-29T23:26:54.264Z,31.63
2023-01-29T23:29:21.528Z,31.14
2023-01-29T23:31:48.150Z,31.04
2023-01-29T23:34:15.567Z,31.32
2023-01-29T23:36:42.830Z,31.07
2023-01-29T23:39:10.331Z,30.69
2023-01-29T23:41:36.955Z,29.84
2023-01-29T23:44:04.359Z,28.85
2023-01-29T23:46:31.685Z,28.43
2023-01-29T23:48:58.393Z,28.57
2023-01-29T23:51:24.947Z,29.02
2023-01-29T23:53:51.651Z,28.91
2023-01-29T23:56:18.296Z,29.01
2023-01-29T23:58:44.999Z,28.18
